createdAt,value
2023-01-24T00:01:24.553Z,2.87
2023-01-24T00:03:52.102Z,2.84
2023-01-24T00:06:19.842Z,2.84
2023-01-24T00:08:47.280Z,2.84
2023-01-24T00:11:15.233Z,2.85
2023-01-24T00:13:42.679Z,2.85
2023-01-24T00:16:20.498Z,2.88
2023-01-24T00:18:49.892Z,2.86
2023-01-24T00:21:22.486Z,2.86
2023-01-24T00:23:55.483Z,2.87
2023-01-24T00:26:25.974Z,2.88
2023-01-24T00:28:53.761Z,2.89
2023-01-24T00:31:22.170Z,2.88
2023-01-24T00:33:49.843Z,2.90
2023-01-24T00:36:17.930Z,2.89
2023-01-24T00:38:45.550Z,2.89
2023-01-24T00:41:13.102Z,2.89
2023-01-24T00:43:40.695Z,2.90
2023-01-24T00:46:10.086Z,2.90
2023-01-24T00:48:37.827Z,2.92
2023-01-24T00:51:05.838Z,2.94
2023-01-24T00:53:33.655Z,2.92
2023-01-24T00:56:01.578Z,2.88
2023-01-24T00:58:29.375Z,2.86
2023-01-24T01:00:59.310Z,2.86
2023-01-24T01:03:27.410Z,2.84
2023-01-24T01:06:00.720Z,2.82
2023-01-24T01:08:28.886Z,2.81
2023-01-24T01:10:56.610Z,2.81
2023-01-24T01:13:25.014Z,2.80
2023-01-24T01:15:52.614Z,2.80
2023-01-24T01:18:20.034Z,2.84
2023-01-24T01:20:51.982Z,2.80
2023-01-24T01:23:19.519Z,2.77
2023-01-24T01:25:47.457Z,2.74
2023-01-24T01:28:14.864Z,2.73
2023-01-24T01:30:42.375Z,2.75
2023-01-24T01:33:09.903Z,2.77
2023-01-24T01:35:37.311Z,2.78
2023-01-24T01:38:04.809Z,2.75
2023-01-24T01:40:32.228Z,2.70
2023-01-24T01:42:59.638Z,2.67
2023-01-24T01:45:37.819Z,2.67
2023-01-24T01:48:36.206Z,2.67
2023-01-24T01:51:19.228Z,2.65
2023-01-24T01:54:04.144Z,2.66
2023-01-24T01:56:49.712Z,2.69
2023-01-24T01:59:24.571Z,2.67
2023-01-24T02:01:56.050Z,2.66
2023-01-24T02:04:32.650Z,2.66
2023-01-24T02:07:11.425Z,2.65
2023-01-24T02:09:43.370Z,2.61
2023-01-24T02:12:29.045Z,2.61
2023-01-24T02:15:27.621Z,2.63
2023-01-24T02:17:55.391Z,2.61
2023-01-24T02:20:47.676Z,2.60
2023-01-24T02:23:39.787Z,2.59
2023-01-24T02:26:14.346Z,2.58
2023-01-24T02:28:50.818Z,2.58
2023-01-24T02:31:18.601Z,2.53
2023-01-24T02:33:46.371Z,2.47
2023-01-24T02:36:22.832Z,2.48
2023-01-24T02:39:02.071Z,2.44
2023-01-24T02:41:40.065Z,2.40
2023-01-24T02:44:15.560Z,2.41
2023-01-24T02:46:46.821Z,2.40
2023-01-24T02:49:14.454Z,2.41
2023-01-24T02:52:00.461Z,2.42
2023-01-24T02:54:28.014Z,2.44
2023-01-24T02:57:14.066Z,2.47
2023-01-24T02:59:41.894Z,2.42
2023-01-24T03:02:10.350Z,2.42
2023-01-24T03:04:37.761Z,2.38
2023-01-24T03:07:06.987Z,2.38
2023-01-24T03:09:34.582Z,2.39
2023-01-24T03:12:25.426Z,2.41
2023-01-24T03:15:15.881Z,2.38
2023-01-24T03:18:03.557Z,2.38
2023-01-24T03:20:49.581Z,2.37
2023-01-24T03:23:36.664Z,2.33
2023-01-24T03:26:22.623Z,2.31
2023-01-24T03:29:09.000Z,2.29
2023-01-24T03:31:55.930Z,2.26
2023-01-24T03:34:46.426Z,2.24
2023-01-24T03:37:41.245Z,2.18
2023-01-24T03:40:14.482Z,2.15
2023-01-24T03:42:49.716Z,2.16
2023-01-24T03:45:25.579Z,2.19
2023-01-24T03:47:56.974Z,2.19
2023-01-24T03:50:48.538Z,2.19
2023-01-24T03:53:17.723Z,2.15
2023-01-24T03:55:48.012Z,2.16
2023-01-24T03:58:16.207Z,2.17
2023-01-24T04:00:43.798Z,2.14
2023-01-24T04:03:28.035Z,2.14
2023-01-24T04:05:55.688Z,2.13
2023-01-24T04:08:23.109Z,2.10
2023-01-24T04:10:50.886Z,2.08
2023-01-24T04:13:19.082Z,2.10
2023-01-24T04:15:46.620Z,2.11
2023-01-24T04:18:29.733Z,2.11
2023-01-24T04:21:03.189Z,2.13
2023-01-24T04:23:31.505Z,2.10
2023-01-24T04:26:00.521Z,2.10
2023-01-24T04:28:32.171Z,2.05
2023-01-24T04:31:04.260Z,2.04
2023-01-24T04:33:57.535Z,2.05
2023-01-24T04:36:28.786Z,2.08
2023-01-24T04:38:56.889Z,2.09
2023-01-24T04:41:30.495Z,2.08
2023-01-24T04:43:59.523Z,2.07
2023-01-24T04:46:29.301Z,2.05
2023-01-24T04:48:57.757Z,2.06
2023-01-24T04:51:49.072Z,2.05
2023-01-24T04:54:21.997Z,2.06
2023-01-24T04:56:51.525Z,2.06
2023-01-24T04:59:19.356Z,2.07
2023-01-24T05:01:48.919Z,2.07
2023-01-24T05:04:43.310Z,2.08
2023-01-24T05:07:11.513Z,2.09
2023-01-24T05:09:40.515Z,2.04
2023-01-24T05:12:10.376Z,2.01
2023-01-24T05:14:38.080Z,1.99
2023-01-24T05:17:06.049Z,1.99
2023-01-24T05:19:35.796Z,2.01
2023-01-24T05:22:04.459Z,2.02
2023-01-24T05:24:36.978Z,2.05
2023-01-24T05:27:04.599Z,2.04
2023-01-24T05:29:34.618Z,2.03
2023-01-24T05:32:04.900Z,2.01
2023-01-24T05:34:32.547Z,1.99
2023-01-24T05:37:00.355Z,1.99
2023-01-24T05:39:27.901Z,1.96
2023-01-24T05:41:55.523Z,1.95
2023-01-24T05:44:29.028Z,1.97
2023-01-24T05:46:56.628Z,1.96
2023-01-24T05:49:29.424Z,1.93
2023-01-24T05:51:57.069Z,1.86
2023-01-24T05:54:40.939Z,1.82
2023-01-24T05:57:22.949Z,1.83
2023-01-24T06:00:11.415Z,1.85
2023-01-24T06:03:03.719Z,1.85
2023-01-24T06:05:31.435Z,1.85
2023-01-24T06:07:58.878Z,1.85
2023-01-24T06:10:26.405Z,1.84
2023-01-24T06:13:06.183Z,1.84
2023-01-24T06:15:34.089Z,1.84
2023-01-24T06:18:04.340Z,1.83
2023-01-24T06:20:32.983Z,1.83
2023-01-24T06:23:07.388Z,1.85
2023-01-24T06:25:40.640Z,1.83
2023-01-24T06:28:10.507Z,1.85
2023-01-24T06:30:43.653Z,1.83
2023-01-24T06:33:31.212Z,1.80
2023-01-24T06:36:28.947Z,1.77
2023-01-24T06:38:56.859Z,1.74
2023-01-24T06:41:24.669Z,1.76
2023-01-24T06:43:53.118Z,1.79
2023-01-24T06:46:20.915Z,1.80
2023-01-24T06:48:48.680Z,1.79
2023-01-24T06:51:16.164Z,1.74
2023-01-24T06:53:43.822Z,1.72
2023-01-24T06:56:11.631Z,1.69
2023-01-24T06:58:39.021Z,1.69
2023-01-24T07:01:06.802Z,1.69
2023-01-24T07:03:34.381Z,1.68
2023-01-24T07:06:01.806Z,1.70
2023-01-24T07:08:29.256Z,1.68
2023-01-24T07:10:59.632Z,1.71
2023-01-24T07:13:27.301Z,1.70
2023-01-24T07:15:54.897Z,1.70
2023-01-24T07:18:22.980Z,1.69
2023-01-24T07:20:51.209Z,1.69
2023-01-24T07:23:24.343Z,1.66
2023-01-24T07:25:52.969Z,1.65
2023-01-24T07:28:20.784Z,1.60
2023-01-24T07:30:50.050Z,1.58
2023-01-24T07:33:17.485Z,1.58
2023-01-24T07:35:45.352Z,1.59
2023-01-24T07:38:13.162Z,1.60
2023-01-24T07:40:43.503Z,1.61
2023-01-24T07:43:11.209Z,1.58
2023-01-24T07:45:39.542Z,1.56
2023-01-24T07:48:08.544Z,1.57
2023-01-24T07:50:36.667Z,1.61
2023-01-24T07:53:04.571Z,1.64
2023-01-24T07:55:32.126Z,1.64
2023-01-24T07:58:04.026Z,1.64
2023-01-24T08:00:32.443Z,1.60
2023-01-24T08:02:59.958Z,1.57
2023-01-24T08:05:27.392Z,1.56
2023-01-24T08:07:56.205Z,1.58
2023-01-24T08:10:24.051Z,1.57
2023-01-24T08:12:51.875Z,1.55
2023-01-24T08:15:19.435Z,1.55
2023-01-24T08:17:46.853Z,1.54
2023-01-24T08:20:15.116Z,1.57
2023-01-24T08:22:57.014Z,1.60
2023-01-24T08:25:31.413Z,1.58
2023-01-24T08:27:59.260Z,1.55
2023-01-24T08:30:27.185Z,1.55
2023-01-24T08:33:06.557Z,1.57
2023-01-24T08:35:34.451Z,1.58
2023-01-24T08:38:01.984Z,1.60
2023-01-24T08:40:33.134Z,1.64
2023-01-24T08:43:06.507Z,1.67
2023-01-24T08:45:34.779Z,1.72
2023-01-24T08:48:02.672Z,1.73
2023-01-24T08:50:30.102Z,1.73
2023-01-24T08:52:58.343Z,1.75
2023-01-24T08:55:25.926Z,1.75
2023-01-24T08:57:59.313Z,1.77
2023-01-24T09:00:26.814Z,1.76
2023-01-24T09:02:54.332Z,1.77
2023-01-24T09:05:22.193Z,1.78
2023-01-24T09:07:50.075Z,1.78
2023-01-24T09:10:17.680Z,1.83
2023-01-24T09:12:45.191Z,1.83
2023-01-24T09:15:12.716Z,1.77
2023-01-24T09:17:41.070Z,1.76
2023-01-24T09:20:09.666Z,1.77
2023-01-24T09:22:37.162Z,1.76
2023-01-24T09:25:05.179Z,1.79
2023-01-24T09:27:32.626Z,1.83
2023-01-24T09:30:00.229Z,1.85
2023-01-24T09:32:28.108Z,1.90
2023-01-24T09:34:55.723Z,1.90
2023-01-24T09:37:23.896Z,1.91
2023-01-24T09:39:51.448Z,1.92
2023-01-24T09:42:42.212Z,1.96
2023-01-24T09:45:31.581Z,1.96
2023-01-24T09:48:03.770Z,1.93
2023-01-24T09:50:55.523Z,1.90
2023-01-24T09:53:35.960Z,1.89
2023-01-24T09:56:07.129Z,1.87
2023-01-24T09:58:41.854Z,1.83
2023-01-24T10:01:14.389Z,1.79
2023-01-24T10:03:43.349Z,1.78
2023-01-24T10:06:27.023Z,1.80
2023-01-24T10:09:23.750Z,1.86
2023-01-24T10:12:29.347Z,1.90
2023-01-24T10:15:53.547Z,1.92
2023-01-24T10:19:06.849Z,1.97
2023-01-24T10:22:20.311Z,2.00
2023-01-24T10:25:12.367Z,2.01
2023-01-24T10:27:47.056Z,2.03
2023-01-24T10:30:26.690Z,2.07
2023-01-24T10:33:04.337Z,2.08
2023-01-24T10:35:44.664Z,2.09
2023-01-24T10:38:17.132Z,2.05
2023-01-24T10:40:59.784Z,1.98
2023-01-24T10:43:32.287Z,1.95
2023-01-24T10:46:28.935Z,1.98
2023-01-24T10:49:00.579Z,2.03
2023-01-24T10:51:28.015Z,2.00
2023-01-24T10:54:03.143Z,2.05
2023-01-24T10:56:31.164Z,2.10
2023-01-24T10:59:13.631Z,2.17
2023-01-24T11:01:51.916Z,2.16
2023-01-24T11:04:24.787Z,2.15
2023-01-24T11:06:53.239Z,2.19
2023-01-24T11:09:28.203Z,2.22
2023-01-24T11:11:59.569Z,2.24
2023-01-24T11:14:32.271Z,2.28
2023-01-24T11:17:02.359Z,2.31
2023-01-24T11:19:40.013Z,2.33
2023-01-24T11:22:34.491Z,2.35
2023-01-24T11:25:10.109Z,2.35
2023-01-24T11:27:50.222Z,2.37
2023-01-24T11:30:23.302Z,2.37
2023-01-24T11:33:37.277Z,2.38
2023-01-24T11:36:26.817Z,2.36
2023-01-24T11:39:03.360Z,2.38
2023-01-24T11:41:47.382Z,2.38
2023-01-24T11:44:32.559Z,2.39
2023-01-24T11:47:18.280Z,2.38
2023-01-24T11:50:18.285Z,2.38
2023-01-24T11:53:24.659Z,2.42
2023-01-24T11:56:21.839Z,2.47
2023-01-24T11:59:18.344Z,2.50
2023-01-24T12:02:16.709Z,2.51
2023-01-24T12:05:04.378Z,2.47
2023-01-24T12:07:56.228Z,2.49
2023-01-24T12:11:13.004Z,2.51
2023-01-24T12:14:44.475Z,2.51
2023-01-24T12:17:30.505Z,2.46
2023-01-24T12:20:32.857Z,2.37
2023-01-24T12:23:40.180Z,2.29
2023-01-24T12:26:22.171Z,2.24
2023-01-24T12:29:07.162Z,2.24
2023-01-24T12:32:29.192Z,2.22
2023-01-24T12:35:16.900Z,2.23
2023-01-24T12:38:09.572Z,2.22
2023-01-24T12:41:16.134Z,2.19
2023-01-24T12:44:27.188Z,2.17
2023-01-24T12:46:57.536Z,2.16
2023-01-24T12:50:05.737Z,2.22
2023-01-24T12:52:53.561Z,2.23
2023-01-24T12:55:37.557Z,2.26
2023-01-24T12:58:25.622Z,2.29
2023-01-24T13:01:51.217Z,2.36
2023-01-24T13:04:59.145Z,2.41
2023-01-24T13:07:42.522Z,2.45
2023-01-24T13:11:02.299Z,2.50
2023-01-24T13:13:45.083Z,2.52
2023-01-24T13:16:40.106Z,2.55
2023-01-24T13:19:48.948Z,2.56
2023-01-24T13:22:40.024Z,2.48
2023-01-24T13:25:30.658Z,2.40
2023-01-24T13:28:07.472Z,2.37
2023-01-24T13:31:18.936Z,2.39
2023-01-24T13:33:52.591Z,2.38
2023-01-24T13:36:33.484Z,2.45
2023-01-24T13:39:02.881Z,2.49
2023-01-24T13:41:30.344Z,2.56
2023-01-24T13:44:22.554Z,2.57
2023-01-24T13:47:24.928Z,2.57
2023-01-24T13:49:55.330Z,2.48
2023-01-24T13:52:32.017Z,2.42
2023-01-24T13:55:01.798Z,2.32
2023-01-24T13:57:32.604Z,2.28
2023-01-24T14:00:35.398Z,2.28
2023-01-24T14:03:14.799Z,2.24
2023-01-24T14:05:56.026Z,2.21
2023-01-24T14:08:26.441Z,2.21
2023-01-24T14:11:05.988Z,2.21
2023-01-24T14:13:48.893Z,2.17
2023-01-24T14:16:28.579Z,2.14
2023-01-24T14:19:05.007Z,2.13
2023-01-24T14:21:54.676Z,2.13
2023-01-24T14:24:42.372Z,2.10
2023-01-24T14:27:49.893Z,2.15
2023-01-24T14:30:47.048Z,2.20
2023-01-24T14:33:55.113Z,2.20
2023-01-24T14:36:32.661Z,2.18
2023-01-24T14:39:32.887Z,2.22
2023-01-24T14:42:04.533Z,2.22
2023-01-24T14:44:36.344Z,2.25
2023-01-24T14:47:20.040Z,2.20
2023-01-24T14:49:52.949Z,2.19
2023-01-24T14:52:35.905Z,2.24
2023-01-24T14:55:18.741Z,2.27
2023-01-24T14:57:46.223Z,2.27
2023-01-24T15:00:13.807Z,2.31
2023-01-24T15:03:00.209Z,2.30
2023-01-24T15:05:33.990Z,2.28
2023-01-24T15:08:14.243Z,2.25
2023-01-24T15:10:43.577Z,2.23
2023-01-24T15:13:43.251Z,2.20
2023-01-24T15:16:30.972Z,2.15
2023-01-24T15:19:22.198Z,2.11
2023-01-24T15:21:53.586Z,2.08
2023-01-24T15:24:28.762Z,2.09
2023-01-24T15:26:59.856Z,2.06
2023-01-24T15:29:47.879Z,2.04
2023-01-24T15:32:33.620Z,1.98
2023-01-24T15:35:26.688Z,1.93
2023-01-24T15:38:28.234Z,1.90
2023-01-24T15:41:20.256Z,1.86
2023-01-24T15:43:55.994Z,1.83
2023-01-24T15:46:58.669Z,1.82
2023-01-24T15:49:36.290Z,1.80
2023-01-24T15:52:08.675Z,1.76
2023-01-24T15:54:42.296Z,1.72
2023-01-24T15:57:24.482Z,1.67
2023-01-24T16:00:01.400Z,1.67
2023-01-24T16:02:37.458Z,1.65
2023-01-24T16:05:21.244Z,1.67
2023-01-24T16:07:49.205Z,1.68
2023-01-24T16:10:17.971Z,1.70
2023-01-24T16:12:50.181Z,1.72
2023-01-24T16:15:21.819Z,1.74
2023-01-24T16:17:49.581Z,1.74
2023-01-24T16:20:28.268Z,1.75
2023-01-24T16:22:56.171Z,1.72
2023-01-24T16:25:24.473Z,1.73
2023-01-24T16:27:52.640Z,1.71
2023-01-24T16:30:26.142Z,1.69
2023-01-24T16:32:55.319Z,1.67
2023-01-24T16:35:24.021Z,1.68
2023-01-24T16:37:52.056Z,1.69
2023-01-24T16:40:19.951Z,1.71
2023-01-24T16:42:48.649Z,1.75
2023-01-24T16:45:21.262Z,1.75
2023-01-24T16:47:48.712Z,1.74
2023-01-24T16:50:17.460Z,1.76
2023-01-24T16:52:45.417Z,1.75
2023-01-24T16:55:13.185Z,1.77
2023-01-24T16:57:40.640Z,1.78
2023-01-24T17:00:14.268Z,1.78
2023-01-24T17:02:44.493Z,1.77
2023-01-24T17:05:13.049Z,1.76
2023-01-24T17:07:40.686Z,1.76
2023-01-24T17:10:10.066Z,1.77
2023-01-24T17:12:37.676Z,1.78
2023-01-24T17:15:05.764Z,1.78
2023-01-24T17:17:35.798Z,1.78
2023-01-24T17:20:10.700Z,1.77
2023-01-24T17:22:39.560Z,1.77
2023-01-24T17:25:08.996Z,1.77
2023-01-24T17:27:36.965Z,1.78
2023-01-24T17:30:06.095Z,1.77
2023-01-24T17:32:35.031Z,1.75
2023-01-24T17:35:03.183Z,1.73
2023-01-24T17:37:30.709Z,1.71
2023-01-24T17:39:58.205Z,1.71
2023-01-24T17:42:25.884Z,1.71
2023-01-24T17:44:53.375Z,1.72
2023-01-24T17:47:20.887Z,1.72
2023-01-24T17:49:48.677Z,1.72
2023-01-24T17:52:23.701Z,1.71
2023-01-24T17:54:51.706Z,1.68
2023-01-24T17:57:19.307Z,1.68
2023-01-24T17:59:46.733Z,1.69
2023-01-24T18:02:14.309Z,1.66
2023-01-24T18:04:41.858Z,1.64
2023-01-24T18:07:09.357Z,1.61
2023-01-24T18:09:36.811Z,1.59
2023-01-24T18:12:04.282Z,1.57
2023-01-24T18:14:33.068Z,1.54
2023-01-24T18:17:00.644Z,1.51
2023-01-24T18:19:28.202Z,1.50
2023-01-24T18:21:55.838Z,1.49
2023-01-24T18:24:25.132Z,1.51
2023-01-24T18:26:52.663Z,1.48
2023-01-24T18:29:20.218Z,1.50
2023-01-24T18:31:48.337Z,1.54
2023-01-24T18:34:15.918Z,1.55
2023-01-24T18:36:43.658Z,1.56
2023-01-24T18:39:11.223Z,1.58
2023-01-24T18:41:38.734Z,1.60
2023-01-24T18:44:07.205Z,1.58
2023-01-24T18:46:35.523Z,1.61
2023-01-24T18:49:09.017Z,1.61
2023-01-24T18:51:37.311Z,1.61
2023-01-24T18:54:07.295Z,1.60
2023-01-24T18:56:34.853Z,1.61
2023-01-24T18:59:02.340Z,1.60
2023-01-24T19:01:29.843Z,1.60
2023-01-24T19:03:57.304Z,1.57
2023-01-24T19:06:32.915Z,1.59
2023-01-24T19:09:04.821Z,1.60
2023-01-24T19:11:35.926Z,1.61
2023-01-24T19:14:05.152Z,1.60
2023-01-24T19:16:40.638Z,1.60
2023-01-24T19:19:13.534Z,1.57
2023-01-24T19:21:42.194Z,1.54
2023-01-24T19:24:09.988Z,1.55
2023-01-24T19:26:37.491Z,1.54
2023-01-24T19:29:05.587Z,1.51
2023-01-24T19:31:33.391Z,1.49
2023-01-24T19:34:01.262Z,1.47
2023-01-24T19:36:28.851Z,1.46
2023-01-24T19:38:59.631Z,1.46
2023-01-24T19:41:29.657Z,1.43
2023-01-24T19:46:48.875Z,1.38
2023-01-24T19:49:20.569Z,1.33
2023-01-24T19:51:48.200Z,1.24
2023-01-24T19:54:15.809Z,1.24
2023-01-24T19:56:43.617Z,1.27
2023-01-24T19:59:11.350Z,1.31
2023-01-24T20:01:38.875Z,1.34
2023-01-24T20:04:24.626Z,1.37
2023-01-24T20:06:54.630Z,1.35
2023-01-24T20:09:23.080Z,1.36
2023-01-24T20:11:52.671Z,1.38
2023-01-24T20:14:20.435Z,1.41
2023-01-24T20:16:48.308Z,1.42
2023-01-24T20:19:27.571Z,1.42
2023-01-24T20:21:57.093Z,1.42
2023-01-24T20:24:24.938Z,1.44
2023-01-24T20:26:53.413Z,1.45
2023-01-24T20:29:22.497Z,1.46
2023-01-24T20:31:50.115Z,1.45
2023-01-24T20:34:18.736Z,1.42
2023-01-24T20:36:49.788Z,1.42
2023-01-24T20:39:17.575Z,1.40
2023-01-24T20:41:46.573Z,1.40
2023-01-24T20:44:26.495Z,1.39
2023-01-24T20:46:57.911Z,1.39
2023-01-24T20:49:26.063Z,1.37
2023-01-24T20:51:54.878Z,1.36
2023-01-24T20:54:23.761Z,1.37
2023-01-24T20:56:57.600Z,1.35
2023-01-24T20:59:25.268Z,1.35
2023-01-24T21:01:53.460Z,1.35
2023-01-24T21:04:21.591Z,1.29
2023-01-24T21:06:52.631Z,1.28
2023-01-24T21:09:21.976Z,1.22
2023-01-24T21:11:51.362Z,1.22
2023-01-24T21:14:22.692Z,1.22
2023-01-24T21:16:50.421Z,1.22
2023-01-24T21:19:20.889Z,1.20
2023-01-24T21:21:49.975Z,1.23
2023-01-24T21:24:34.517Z,1.25
2023-01-24T21:27:03.283Z,1.26
2023-01-24T21:29:32.714Z,1.27
2023-01-24T21:32:01.605Z,1.28
2023-01-24T21:34:29.517Z,1.25
2023-01-24T21:36:57.901Z,1.22
2023-01-24T21:39:26.387Z,1.16
2023-01-24T21:41:55.358Z,1.11
2023-01-24T21:44:25.679Z,1.08
2023-01-24T21:46:54.030Z,1.08
2023-01-24T21:49:22.798Z,1.10
2023-01-24T21:51:54.322Z,1.13
2023-01-24T21:54:28.746Z,1.15
2023-01-24T21:57:30.725Z,1.17
2023-01-24T22:00:01.733Z,1.18
2023-01-24T22:02:39.686Z,1.22
2023-01-24T22:05:08.344Z,1.24
2023-01-24T22:07:36.224Z,1.24
2023-01-24T22:10:04.361Z,1.23
2023-01-24T22:12:35.634Z,1.19
2023-01-24T22:15:04.361Z,1.17
2023-01-24T22:17:34.540Z,1.19
2023-01-24T22:20:02.632Z,1.23
2023-01-24T22:22:42.866Z,1.26
2023-01-24T22:25:38.040Z,1.29
2023-01-24T22:28:13.880Z,1.23
2023-01-24T22:30:41.721Z,1.22
2023-01-24T22:33:10.185Z,1.22
2023-01-24T22:35:38.247Z,1.17
2023-01-24T22:38:05.885Z,1.12
2023-01-24T22:40:33.659Z,1.06
2023-01-24T22:43:01.124Z,1.04
2023-01-24T22:45:30.336Z,1.05
2023-01-24T22:47:57.934Z,1.06
2023-01-24T22:50:25.941Z,1.07
2023-01-24T22:52:53.956Z,1.05
2023-01-24T22:55:21.454Z,0.98
2023-01-24T22:57:49.024Z,0.97
2023-01-24T23:00:18.178Z,0.94
2023-01-24T23:02:45.733Z,0.91
2023-01-24T23:05:13.415Z,0.86
2023-01-24T23:07:41.215Z,0.83
2023-01-24T23:10:09.834Z,0.78
2023-01-24T23:12:57.004Z,0.74
2023-01-24T23:15:53.870Z,0.67
2023-01-24T23:18:44.216Z,0.65
2023-01-24T23:21:30.343Z,0.65
2023-01-24T23:23:58.449Z,0.66
2023-01-24T23:26:26.677Z,0.67
2023-01-24T23:29:05.494Z,0.71
2023-01-24T23:31:33.176Z,0.69
2023-01-24T23:34:02.305Z,0.72
2023-01-24T23:36:31.653Z,0.73
2023-01-24T23:38:59.198Z,0.75
2023-01-24T23:41:26.654Z,0.78
2023-01-24T23:43:54.101Z,0.80
2023-01-24T23:46:21.535Z,0.80
2023-01-24T23:48:48.974Z,0.78
2023-01-24T23:51:16.486Z,0.79
2023-01-24T23:53:45.756Z,0.80
2023-01-24T23:56:13.399Z,0.82
2023-01-24T23:58:40.904Z,0.83
